createdAt,value
2022-10-18T00:01:56.962Z,101869.91
2022-10-18T00:04:23.784Z,101875.59
2022-10-18T00:06:50.529Z,101876.31
2022-10-18T00:09:17.317Z,101882.41
2022-10-18T00:11:44.073Z,101871.47
2022-10-18T00:14:10.845Z,101879.47
2022-10-18T00:16:37.585Z,101888.25
2022-10-18T00:19:04.347Z,101890.19
2022-10-18T00:21:31.147Z,101888.53
2022-10-18T00:23:58.281Z,101885.84
2022-10-18T00:26:25.056Z,101892.03
2022-10-18T00:28:51.844Z,101896.78
2022-10-18T00:31:18.629Z,101894.28
2022-10-18T00:33:45.387Z,101893.06
2022-10-18T00:36:12.146Z,101887.56
2022-10-18T00:38:38.958Z,101873.88
2022-10-18T00:41:05.898Z,101889.97
2022-10-18T00:43:32.677Z,101883.63
2022-10-18T00:45:59.443Z,101893.22
2022-10-18T00:48:26.240Z,101895.94
2022-10-18T00:50:53.037Z,101898.88
2022-10-18T00:53:19.832Z,101891.47
2022-10-18T00:55:46.636Z,101890.28
2022-10-18T00:58:13.380Z,101891.66
2022-10-18T01:00:40.729Z,101885.34
2022-10-18T01:03:07.498Z,101889.84
2022-10-18T01:05:34.230Z,101884.94
2022-10-18T01:08:00.969Z,101884.56
2022-10-18T01:10:27.831Z,101887.44
2022-10-18T01:12:54.623Z,101891.41
2022-10-18T01:15:21.369Z,101885.38
2022-10-18T01:17:48.123Z,101892.81
2022-10-18T01:20:14.864Z,101893.97
2022-10-18T01:22:41.635Z,101899.88
2022-10-18T01:25:08.421Z,101896.09
2022-10-18T01:27:35.166Z,101888.44
2022-10-18T01:30:02.076Z,101887.88
2022-10-18T01:32:28.910Z,101891.28
2022-10-18T01:34:55.645Z,101888.03
2022-10-18T01:37:22.385Z,101884.13
2022-10-18T01:39:49.145Z,101881.50
2022-10-18T01:42:15.877Z,101874.97
2022-10-18T01:44:42.617Z,101884.66
2022-10-18T01:47:09.374Z,101881.09
2022-10-18T01:49:36.114Z,101883.53
2022-10-18T01:52:03.055Z,101893.34
2022-10-18T01:54:29.993Z,101894.25
2022-10-18T01:56:57.010Z,101902.47
2022-10-18T01:59:23.786Z,101903.69
2022-10-18T02:01:50.559Z,101902.69
2022-10-18T02:04:17.304Z,101904.78
2022-10-18T02:06:44.041Z,101901.59
2022-10-18T02:09:10.796Z,101894.31
2022-10-18T02:11:37.542Z,101890.66
2022-10-18T02:14:04.292Z,101891.31
2022-10-18T02:16:31.157Z,101892.47
2022-10-18T02:18:58.000Z,101891.53
2022-10-18T02:21:24.765Z,101902.38
2022-10-18T02:23:51.549Z,101902.81
2022-10-18T02:26:18.349Z,101901.56
2022-10-18T02:28:45.085Z,101902.59
2022-10-18T02:31:11.882Z,101906.53
2022-10-18T02:33:38.628Z,101899.28
2022-10-18T02:36:05.364Z,101901.88
2022-10-18T02:38:32.109Z,101897.25
2022-10-18T02:40:58.842Z,101890.22
2022-10-18T02:43:25.596Z,101890.91
2022-10-18T02:45:52.358Z,101901.41
2022-10-18T02:48:19.103Z,101897.78
2022-10-18T02:50:45.885Z,101906.50
2022-10-18T02:53:12.632Z,101908.00
2022-10-18T02:55:39.414Z,101915.16
2022-10-18T02:58:06.157Z,101915.97
2022-10-18T03:00:32.921Z,101909.19
2022-10-18T03:02:59.738Z,101910.47
2022-10-18T03:05:26.486Z,101917.09
2022-10-18T03:07:53.253Z,101910.41
2022-10-18T03:10:19.992Z,101899.25
2022-10-18T03:12:46.733Z,101894.59
2022-10-18T03:15:13.497Z,101896.81
2022-10-18T03:17:40.249Z,101903.91
2022-10-18T03:20:06.998Z,101899.78
2022-10-18T03:22:33.750Z,101898.91
2022-10-18T03:25:00.493Z,101897.00
2022-10-18T03:27:27.238Z,101909.41
2022-10-18T03:29:54.009Z,101915.16
2022-10-18T03:32:20.764Z,101913.72
2022-10-18T03:34:47.504Z,101915.31
2022-10-18T03:37:14.253Z,101907.81
2022-10-18T03:39:40.997Z,101903.53
2022-10-18T03:42:07.745Z,101902.22
2022-10-18T03:44:34.497Z,101902.88
2022-10-18T03:47:01.310Z,101897.22
2022-10-18T03:49:28.092Z,101893.63
2022-10-18T03:51:54.902Z,101891.25
2022-10-18T03:54:21.649Z,101891.78
2022-10-18T03:56:48.394Z,101893.50
2022-10-18T03:59:17.048Z,101887.78
2022-10-18T04:01:43.828Z,101888.66
2022-10-18T04:04:10.589Z,101884.22
2022-10-18T04:06:37.662Z,101892.06
2022-10-18T04:09:07.811Z,101896.84
2022-10-18T04:11:36.890Z,101883.69
2022-10-18T04:14:03.677Z,101896.47
2022-10-18T04:16:30.462Z,101888.72
2022-10-18T04:18:57.241Z,101892.56
2022-10-18T04:21:24.011Z,101891.94
2022-10-18T04:23:50.775Z,101900.66
2022-10-18T04:26:17.572Z,101894.75
2022-10-18T04:28:44.377Z,101897.59
2022-10-18T04:31:11.145Z,101899.31
2022-10-18T04:33:37.894Z,101889.94
2022-10-18T04:36:04.678Z,101900.94
2022-10-18T04:38:31.430Z,101893.34
2022-10-18T04:40:58.170Z,101879.41
2022-10-18T04:43:24.921Z,101868.97
2022-10-18T04:45:51.659Z,101865.22
2022-10-18T04:48:18.477Z,101861.13
2022-10-18T04:50:45.231Z,101862.56
2022-10-18T04:53:12.034Z,101864.53
2022-10-18T04:55:38.777Z,101865.03
2022-10-18T04:58:05.535Z,101858.53
2022-10-18T05:00:33.536Z,101856.16
2022-10-18T05:03:03.238Z,101858.22
2022-10-18T05:05:49.653Z,101848.69
2022-10-18T05:08:16.735Z,101855.34
2022-10-18T05:10:43.525Z,101849.31
2022-10-18T05:13:10.265Z,101838.38
2022-10-18T05:15:37.012Z,101840.81
2022-10-18T05:18:03.790Z,101842.25
2022-10-18T05:20:30.544Z,101841.09
2022-10-18T05:22:57.287Z,101828.38
2022-10-18T05:25:24.089Z,101842.63
2022-10-18T05:27:50.873Z,101842.25
2022-10-18T05:30:17.617Z,101839.50
2022-10-18T05:32:44.374Z,101844.72
2022-10-18T05:35:11.121Z,101843.94
2022-10-18T05:37:37.867Z,101841.75
2022-10-18T05:40:04.675Z,101845.88
2022-10-18T05:42:31.687Z,101833.44
2022-10-18T05:44:58.581Z,101833.22
2022-10-18T05:47:25.360Z,101843.13
2022-10-18T05:49:52.233Z,101845.38
2022-10-18T05:52:19.052Z,101852.28
2022-10-18T05:54:45.822Z,101859.53
2022-10-18T05:57:12.578Z,101865.97
2022-10-18T05:59:39.376Z,101876.94
2022-10-18T06:02:06.251Z,101879.28
2022-10-18T06:04:33.068Z,101886.81
2022-10-18T06:06:59.824Z,101884.03
2022-10-18T06:09:27.169Z,101899.34
2022-10-18T06:11:54.040Z,101893.34
2022-10-18T06:14:20.942Z,101886.75
2022-10-18T06:16:47.713Z,101884.38
2022-10-18T06:19:14.524Z,101888.19
2022-10-18T06:21:41.271Z,101886.75
2022-10-18T06:24:08.035Z,101886.25
2022-10-18T06:26:34.784Z,101887.44
2022-10-18T06:29:01.624Z,101890.97
2022-10-18T06:31:28.513Z,101887.56
2022-10-18T06:33:55.258Z,101902.59
2022-10-18T06:36:22.171Z,101905.16
2022-10-18T06:38:48.953Z,101899.28
2022-10-18T06:41:15.714Z,101901.97
2022-10-18T06:43:43.667Z,101899.97
2022-10-18T06:46:10.496Z,101895.75
2022-10-18T06:48:37.242Z,101892.66
2022-10-18T06:51:03.977Z,101890.13
2022-10-18T06:53:30.735Z,101895.03
2022-10-18T06:55:57.464Z,101907.75
2022-10-18T06:58:24.212Z,101895.44
2022-10-18T07:00:51.118Z,101902.22
2022-10-18T07:03:17.863Z,101911.06
2022-10-18T07:05:44.622Z,101916.03
2022-10-18T07:08:11.405Z,101917.03
2022-10-18T07:10:38.215Z,101923.91
2022-10-18T07:13:27.279Z,101916.31
2022-10-18T07:15:51.761Z,101917.69
2022-10-18T07:18:18.628Z,101915.06
2022-10-18T07:20:45.417Z,101914.63
2022-10-18T07:23:12.405Z,101920.09
2022-10-18T07:25:39.166Z,101929.25
2022-10-18T07:28:05.952Z,101922.91
2022-10-18T07:30:32.723Z,101931.41
2022-10-18T07:32:59.464Z,101927.81
2022-10-18T07:35:26.214Z,101931.31
2022-10-18T07:37:52.968Z,101927.13
2022-10-18T07:40:19.705Z,101941.59
2022-10-18T07:42:46.464Z,101939.59
2022-10-18T07:45:13.660Z,101943.41
2022-10-18T07:47:40.812Z,101935.78
2022-10-18T07:50:07.986Z,101939.31
2022-10-18T07:52:34.741Z,101940.31
2022-10-18T07:55:01.486Z,101947.78
2022-10-18T07:57:28.269Z,101947.19
2022-10-18T07:59:56.928Z,101945.78
2022-10-18T08:02:23.734Z,101951.47
2022-10-18T08:04:50.472Z,101938.75
2022-10-18T08:07:17.232Z,101935.78
2022-10-18T08:09:43.982Z,101939.91
2022-10-18T08:12:10.773Z,101942.25
2022-10-18T08:14:37.569Z,101942.94
2022-10-18T08:17:04.336Z,101942.88
2022-10-18T08:19:31.088Z,101943.75
2022-10-18T08:21:57.854Z,101937.50
2022-10-18T08:24:24.588Z,101940.91
2022-10-18T08:26:51.336Z,101932.97
2022-10-18T08:29:23.277Z,101932.88
2022-10-18T08:31:50.984Z,101930.63
2022-10-18T08:34:19.847Z,101931.81
2022-10-18T08:36:46.895Z,101928.00
2022-10-18T08:39:13.701Z,101936.25
2022-10-18T08:41:40.477Z,101934.47
2022-10-18T08:44:07.674Z,101938.69
2022-10-18T08:46:34.574Z,101937.13
2022-10-18T08:49:01.323Z,101936.13
2022-10-18T08:51:28.470Z,101934.66
2022-10-18T08:53:55.228Z,101942.97
2022-10-18T08:56:24.334Z,101940.91
2022-10-18T08:58:51.168Z,101945.44
2022-10-18T09:01:17.907Z,101944.06
2022-10-18T09:03:44.751Z,101947.00
2022-10-18T09:06:11.552Z,101941.63
2022-10-18T09:08:38.360Z,101942.81
2022-10-18T09:11:05.113Z,101938.69
2022-10-18T09:13:31.917Z,101938.69
2022-10-18T09:15:58.941Z,101940.41
2022-10-18T09:18:25.742Z,101929.22
2022-10-18T09:20:52.516Z,101928.41
2022-10-18T09:23:19.918Z,101929.03
2022-10-18T09:25:46.660Z,101927.03
2022-10-18T09:28:13.584Z,101924.44
2022-10-18T09:30:40.739Z,101915.88
2022-10-18T09:33:07.479Z,101909.09
2022-10-18T09:35:34.226Z,101908.38
2022-10-18T09:38:00.973Z,101904.53
2022-10-18T09:40:27.759Z,101905.28
2022-10-18T09:42:54.766Z,101910.72
2022-10-18T09:45:21.520Z,101909.09
2022-10-18T09:47:48.289Z,101898.31
2022-10-18T09:50:15.368Z,101902.34
2022-10-18T09:52:42.162Z,101899.38
2022-10-18T09:55:08.906Z,101906.31
2022-10-18T09:57:35.721Z,101909.03
2022-10-18T10:00:03.185Z,101905.75
2022-10-18T10:02:29.988Z,101907.41
2022-10-18T10:04:56.994Z,101915.91
2022-10-18T10:07:23.947Z,101918.25
2022-10-18T10:09:50.719Z,101919.25
2022-10-18T10:12:17.473Z,101928.03
2022-10-18T10:14:44.219Z,101937.91
2022-10-18T10:17:10.961Z,101932.94
2022-10-18T10:19:37.773Z,101932.03
2022-10-18T10:22:04.592Z,101929.22
2022-10-18T10:24:31.419Z,101934.06
2022-10-18T10:26:58.652Z,101922.66
2022-10-18T10:29:43.673Z,101934.66
2022-10-18T10:32:11.088Z,101932.34
2022-10-18T10:34:40.987Z,101945.81
2022-10-18T10:37:10.632Z,101949.22
2022-10-18T10:39:37.391Z,101946.78
2022-10-18T10:42:05.834Z,101942.19
2022-10-18T10:44:34.862Z,101942.09
2022-10-18T10:47:01.729Z,101942.34
2022-10-18T10:49:39.804Z,101933.16
2022-10-18T10:52:09.214Z,101930.53
2022-10-18T10:54:52.068Z,101924.44
2022-10-18T10:57:19.388Z,101923.28
2022-10-18T10:59:46.158Z,101931.69
2022-10-18T11:02:13.020Z,101937.97
2022-10-18T11:04:41.028Z,101939.91
2022-10-18T11:07:07.826Z,101943.63
2022-10-18T11:09:34.645Z,101946.69
2022-10-18T11:12:01.398Z,101946.72
2022-10-18T11:14:28.190Z,101948.09
2022-10-18T11:16:54.953Z,101949.19
2022-10-18T11:19:23.999Z,101937.34
2022-10-18T11:21:53.251Z,101939.72
2022-10-18T11:24:19.993Z,101945.13
2022-10-18T11:26:49.963Z,101941.13
2022-10-18T11:29:20.174Z,101935.56
2022-10-18T11:31:46.921Z,101937.56
2022-10-18T11:34:13.683Z,101936.25
2022-10-18T11:36:46.231Z,101929.31
2022-10-18T11:39:23.289Z,101934.81
2022-10-18T11:41:50.020Z,101929.31
2022-10-18T11:44:16.770Z,101919.34
2022-10-18T11:46:43.569Z,101920.84
2022-10-18T11:49:10.314Z,101917.22
2022-10-18T11:51:50.300Z,101913.16
2022-10-18T11:54:23.808Z,101912.91
2022-10-18T11:56:50.563Z,101917.81
2022-10-18T11:59:17.335Z,101914.84
2022-10-18T12:01:44.092Z,101918.97
2022-10-18T12:04:10.850Z,101917.84
2022-10-18T12:06:37.619Z,101929.00
2022-10-18T12:09:04.395Z,101921.16
2022-10-18T12:11:31.331Z,101909.88
2022-10-18T12:13:58.775Z,101904.94
2022-10-18T12:16:49.589Z,101907.97
2022-10-18T12:19:12.326Z,101902.94
2022-10-18T12:21:39.099Z,101903.16
2022-10-18T12:24:05.864Z,101902.53
2022-10-18T12:26:32.945Z,101899.25
2022-10-18T12:28:59.746Z,101892.91
2022-10-18T12:31:26.541Z,101897.31
2022-10-18T12:33:53.383Z,101899.44
2022-10-18T12:36:20.136Z,101898.22
2022-10-18T12:38:46.884Z,101898.19
2022-10-18T12:41:13.626Z,101889.63
2022-10-18T12:43:40.393Z,101892.38
2022-10-18T12:46:12.246Z,101888.00
2022-10-18T12:48:42.334Z,101892.56
2022-10-18T12:51:09.080Z,101890.66
2022-10-18T12:53:35.864Z,101889.94
2022-10-18T12:56:02.638Z,101889.25
2022-10-18T12:58:29.546Z,101892.50
2022-10-18T13:00:56.457Z,101895.47
2022-10-18T13:03:23.285Z,101883.81
2022-10-18T13:05:55.279Z,101894.03
2022-10-18T13:08:22.898Z,101888.84
2022-10-18T13:10:49.662Z,101897.78
2022-10-18T13:13:38.306Z,101889.03
2022-10-18T13:16:03.192Z,101898.78
2022-10-18T13:18:29.930Z,101893.41
2022-10-18T13:20:56.698Z,101886.38
2022-10-18T13:23:23.477Z,101892.28
2022-10-18T13:25:50.268Z,101893.97
2022-10-18T13:28:17.017Z,101882.91
2022-10-18T13:30:43.767Z,101891.59
2022-10-18T13:33:10.525Z,101898.06
2022-10-18T13:35:37.267Z,101893.88
2022-10-18T13:38:04.138Z,101899.16
2022-10-18T13:40:30.889Z,101890.22
2022-10-18T13:42:57.638Z,101892.56
2022-10-18T13:45:24.400Z,101887.78
2022-10-18T13:47:51.150Z,101893.22
2022-10-18T13:50:17.986Z,101890.84
2022-10-18T13:52:44.786Z,101895.09
2022-10-18T13:55:11.545Z,101902.75
2022-10-18T13:57:38.288Z,101897.31
2022-10-18T14:00:05.224Z,101900.56
2022-10-18T14:02:50.357Z,101907.22
2022-10-18T14:05:24.948Z,101911.63
2022-10-18T14:07:52.465Z,101898.84
2022-10-18T14:10:19.223Z,101900.69
2022-10-18T14:12:45.994Z,101908.97
2022-10-18T14:15:12.733Z,101902.78
2022-10-18T14:17:40.895Z,101901.72
2022-10-18T14:20:08.008Z,101904.47
2022-10-18T14:22:35.604Z,101907.06
2022-10-18T14:25:02.571Z,101906.84
2022-10-18T14:27:29.376Z,101913.31
2022-10-18T14:29:56.124Z,101911.44
2022-10-18T14:32:22.895Z,101908.41
2022-10-18T14:34:49.645Z,101909.31
2022-10-18T14:37:16.397Z,101905.94
2022-10-18T14:39:43.145Z,101913.25
2022-10-18T14:42:09.885Z,101911.13
2022-10-18T14:44:36.637Z,101912.34
2022-10-18T14:47:03.438Z,101923.72
2022-10-18T14:49:30.185Z,101927.75
2022-10-18T14:51:56.946Z,101929.56
2022-10-18T14:54:26.099Z,101932.63
2022-10-18T14:56:55.821Z,101941.28
2022-10-18T14:59:22.571Z,101933.75
2022-10-18T15:01:49.358Z,101938.31
2022-10-18T15:04:16.088Z,101935.56
2022-10-18T15:06:42.829Z,101928.16
2022-10-18T15:09:09.594Z,101933.19
2022-10-18T15:11:36.665Z,101934.06
2022-10-18T15:14:03.412Z,101934.94
2022-10-18T15:16:30.168Z,101931.81
2022-10-18T15:18:56.903Z,101930.91
2022-10-18T15:21:23.699Z,101926.25
2022-10-18T15:23:50.465Z,101933.91
2022-10-18T15:26:18.133Z,101925.50
2022-10-18T15:28:50.844Z,101927.66
2022-10-18T15:31:17.627Z,101934.50
2022-10-18T15:33:44.386Z,101935.59
2022-10-18T15:36:11.278Z,101927.28
2022-10-18T15:38:38.097Z,101932.75
2022-10-18T15:41:04.843Z,101932.72
2022-10-18T15:43:31.616Z,101926.72
2022-10-18T15:46:01.601Z,101928.03
2022-10-18T15:48:31.993Z,101939.69
2022-10-18T15:51:01.020Z,101934.97
2022-10-18T15:53:27.755Z,101933.44
2022-10-18T15:55:55.459Z,101936.56
2022-10-18T15:58:22.296Z,101939.34
2022-10-18T16:00:49.126Z,101944.94
2022-10-18T16:03:15.953Z,101938.41
2022-10-18T16:05:42.722Z,101937.13
2022-10-18T16:08:10.054Z,101931.69
2022-10-18T16:10:37.897Z,101936.34
2022-10-18T16:13:04.650Z,101934.16
2022-10-18T16:15:31.392Z,101936.13
2022-10-18T16:17:58.136Z,101937.78
2022-10-18T16:20:24.888Z,101942.97
2022-10-18T16:22:51.652Z,101942.34
2022-10-18T16:25:18.400Z,101946.47
2022-10-18T16:27:45.310Z,101949.28
2022-10-18T16:30:12.055Z,101959.88
2022-10-18T16:32:38.845Z,101956.66
2022-10-18T16:35:05.601Z,101952.28
2022-10-18T16:37:32.350Z,101961.16
2022-10-18T16:39:59.112Z,101951.34
2022-10-18T16:42:25.865Z,101960.78
2022-10-18T16:44:54.789Z,101961.78
2022-10-18T16:47:21.538Z,101958.78
2022-10-18T16:49:49.082Z,101964.75
2022-10-18T16:52:15.827Z,101968.78
2022-10-18T16:54:42.712Z,101972.41
2022-10-18T16:57:11.604Z,101979.50
2022-10-18T16:59:38.341Z,101982.25
2022-10-18T17:02:09.000Z,101982.72
2022-10-18T17:04:35.859Z,101972.59
2022-10-18T17:07:02.608Z,101984.47
2022-10-18T17:09:29.393Z,101976.91
2022-10-18T17:11:56.222Z,101980.03
2022-10-18T17:14:22.987Z,101982.53
2022-10-18T17:16:53.828Z,101989.16
2022-10-18T17:19:22.938Z,101981.72
2022-10-18T17:21:49.686Z,101980.00
2022-10-18T17:24:16.561Z,101987.09
2022-10-18T17:26:43.462Z,101991.63
2022-10-18T17:29:10.352Z,102001.78
2022-10-18T17:31:37.161Z,101995.81
2022-10-18T17:34:04.165Z,102003.06
2022-10-18T17:36:30.944Z,101991.56
2022-10-18T17:38:57.793Z,101997.13
2022-10-18T17:41:24.553Z,102001.25
2022-10-18T17:43:51.315Z,101999.56
2022-10-18T17:46:19.325Z,102010.25
2022-10-18T17:48:46.090Z,102011.41
2022-10-18T17:51:12.927Z,102003.50
2022-10-18T17:53:39.665Z,102002.72
2022-10-18T17:56:07.568Z,102006.34
2022-10-18T17:58:34.315Z,102015.00
2022-10-18T18:01:01.052Z,102004.22
2022-10-18T18:03:27.857Z,102007.94
2022-10-18T18:05:54.651Z,102008.03
2022-10-18T18:08:21.395Z,102010.81
2022-10-18T18:13:18.953Z,102011.19
2022-10-18T18:15:46.418Z,102014.22
2022-10-18T18:18:13.234Z,102020.00
2022-10-18T18:20:39.993Z,102018.25
2022-10-18T18:23:06.744Z,102026.38
2022-10-18T18:25:33.498Z,102032.41
2022-10-18T18:28:03.815Z,102032.97
2022-10-18T18:30:33.448Z,102022.94
2022-10-18T18:33:00.205Z,102034.69
2022-10-18T18:35:26.944Z,102040.16
2022-10-18T18:37:53.727Z,102042.50
2022-10-18T18:40:20.675Z,102032.06
2022-10-18T18:43:01.666Z,102024.97
2022-10-18T18:45:34.165Z,102035.16
2022-10-18T18:48:00.916Z,102031.84
2022-10-18T18:50:27.676Z,102040.53
2022-10-18T18:52:54.435Z,102039.91
2022-10-18T18:55:21.179Z,102045.66
2022-10-18T18:57:47.925Z,102044.97
2022-10-18T19:00:14.681Z,102052.47
2022-10-18T19:02:41.417Z,102051.00
2022-10-18T19:05:08.180Z,102055.13
2022-10-18T19:07:36.411Z,102055.69
2022-10-18T19:10:03.156Z,102051.13
2022-10-18T19:12:29.912Z,102063.72
2022-10-18T19:14:56.719Z,102056.06
2022-10-18T19:17:23.523Z,102053.19
2022-10-18T19:19:50.272Z,102043.19
2022-10-18T19:22:17.033Z,102038.97
2022-10-18T19:24:43.771Z,102044.59
2022-10-18T19:27:12.712Z,102043.28
2022-10-18T19:29:39.567Z,102044.97
2022-10-18T19:32:06.971Z,102042.28
2022-10-18T19:34:34.358Z,102043.97
2022-10-18T19:37:01.128Z,102054.53
2022-10-18T19:39:27.883Z,102066.03
2022-10-18T19:41:55.168Z,102060.66
2022-10-18T19:44:22.086Z,102059.75
2022-10-18T19:46:48.872Z,102060.94
2022-10-18T19:49:15.656Z,102066.84
2022-10-18T19:51:42.434Z,102070.47
2022-10-18T19:54:09.238Z,102070.75
2022-10-18T19:56:36.093Z,102074.09
2022-10-18T19:59:03.023Z,102071.59
2022-10-18T20:01:29.833Z,102076.06
2022-10-18T20:03:56.821Z,102080.53
2022-10-18T20:06:23.588Z,102080.66
2022-10-18T20:08:50.370Z,102079.50
2022-10-18T20:11:17.191Z,102087.38
2022-10-18T20:13:43.949Z,102080.44
2022-10-18T20:16:10.740Z,102084.13
2022-10-18T20:18:37.486Z,102084.00
2022-10-18T20:21:04.300Z,102082.84
2022-10-18T20:23:32.517Z,102088.75
2022-10-18T20:25:59.438Z,102096.03
2022-10-18T20:28:26.320Z,102103.53
2022-10-18T20:30:53.122Z,102092.81
2022-10-18T20:33:19.859Z,102094.63
2022-10-18T20:35:50.093Z,102101.22
2022-10-18T20:38:18.914Z,102102.00
2022-10-18T20:40:45.648Z,102104.22
2022-10-18T20:43:12.401Z,102109.66
2022-10-18T20:45:39.145Z,102106.81
2022-10-18T20:48:05.885Z,102103.66
2022-10-18T20:50:32.653Z,102109.94
2022-10-18T20:52:59.394Z,102117.69
2022-10-18T20:55:26.145Z,102107.75
2022-10-18T20:57:52.900Z,102111.97
2022-10-18T21:00:19.645Z,102112.09
2022-10-18T21:02:46.400Z,102113.91
2022-10-18T21:05:13.284Z,102110.28
2022-10-18T21:07:40.032Z,102108.81
2022-10-18T21:10:06.770Z,102111.47
2022-10-18T21:12:34.985Z,102113.13
2022-10-18T21:15:02.066Z,102109.16
2022-10-18T21:17:28.863Z,102112.63
2022-10-18T21:19:55.609Z,102110.78
2022-10-18T21:22:22.353Z,102106.34
2022-10-18T21:24:49.100Z,102102.94
2022-10-18T21:27:15.859Z,102097.03
2022-10-18T21:29:42.596Z,102079.53
2022-10-18T21:32:09.333Z,102085.16
2022-10-18T21:34:36.092Z,102085.03
2022-10-18T21:37:02.839Z,102095.00
2022-10-18T21:39:30.002Z,102084.50
2022-10-18T21:41:56.865Z,102092.22
2022-10-18T21:44:23.600Z,102083.13
2022-10-18T21:46:50.622Z,102089.22
2022-10-18T21:49:17.429Z,102093.53
2022-10-18T21:51:44.201Z,102089.63
2022-10-18T21:54:10.944Z,102091.53
2022-10-18T21:56:37.778Z,102089.53
2022-10-18T21:59:04.571Z,102090.31
2022-10-18T22:01:32.368Z,102080.91
2022-10-18T22:03:59.318Z,102080.78
2022-10-18T22:06:26.173Z,102090.16
2022-10-18T22:08:52.975Z,102089.47
2022-10-18T22:11:19.728Z,102085.34
2022-10-18T22:13:46.488Z,102085.34
2022-10-18T22:16:14.426Z,102084.81
2022-10-18T22:18:41.188Z,102078.56
2022-10-18T22:21:07.934Z,102082.56
2022-10-18T22:23:34.688Z,102084.78
2022-10-18T22:26:01.436Z,102088.44
2022-10-18T22:28:28.255Z,102076.78
2022-10-18T22:30:55.021Z,102078.91
2022-10-18T22:33:21.904Z,102080.13
2022-10-18T22:35:48.677Z,102081.25
2022-10-18T22:38:15.429Z,102085.88
2022-10-18T22:40:42.198Z,102080.53
2022-10-18T22:43:08.939Z,102072.53
2022-10-18T22:45:35.708Z,102071.91
2022-10-18T22:48:02.456Z,102082.97
2022-10-18T22:50:29.203Z,102070.81
2022-10-18T22:52:55.949Z,102064.66
2022-10-18T22:55:22.718Z,102060.69
2022-10-18T22:57:49.476Z,102062.00
2022-10-18T23:00:16.347Z,102064.44
2022-10-18T23:02:43.169Z,102064.75
2022-10-18T23:05:10.045Z,102065.28
2022-10-18T23:07:36.798Z,102067.94
2022-10-18T23:10:03.566Z,102064.47
2022-10-18T23:12:30.440Z,102077.25
2022-10-18T23:14:57.270Z,102072.41
2022-10-18T23:17:24.029Z,102076.41
2022-10-18T23:19:50.773Z,102080.88
2022-10-18T23:22:21.085Z,102080.38
2022-10-18T23:24:47.837Z,102082.72
2022-10-18T23:27:14.626Z,102088.13
2022-10-18T23:29:41.361Z,102093.38
2022-10-18T23:32:08.898Z,102090.44
2022-10-18T23:34:35.781Z,102089.56
2022-10-18T23:37:02.520Z,102083.47
2022-10-18T23:39:29.284Z,102095.25
2022-10-18T23:41:56.028Z,102093.19
2022-10-18T23:44:22.793Z,102081.47
2022-10-18T23:46:49.598Z,102088.16
2022-10-18T23:49:16.347Z,102096.00
2022-10-18T23:51:43.085Z,102087.72
2022-10-18T23:54:09.850Z,102090.91
2022-10-18T23:56:36.612Z,102082.81
2022-10-18T23:59:03.349Z,102074.09
